Saltillo, Texas
Current Conditions -  °F | °C
As of 12:35 AM on Sunday 21 Dec 2014 (Local Time) from KSLR Reporting Station
Overcast Overcast  
Wind Chill: 45°   Ceiling: 4300
Heat Index: 47°   Visibility: 7mi
Dew Point: 44°   Wind: 6mph
Humidity: 88%   Direction: 150°SSE
Pressure: 30.21"   Gusts: NA
Location:  33.18°N, 95.33°W
Report Text: KSLR 210635Z AUTO 15005KT 7SM OVC043 09/07 A3021 RMK AO2 T00860067
Loading
Personal Weather Stations






























Interactive Weather Map New forecast layout! Learn more

10-Day Weather Forecast

Advertisements
Track Severe Weather on mobile